createdAt,value
2018-12-22T00:00:49.498Z,9.10
2018-12-22T00:03:18.097Z,9.00
2018-12-22T00:05:46.792Z,9.00
2018-12-22T00:08:15.441Z,9.00
2018-12-22T00:10:44.015Z,9.00
2018-12-22T00:13:12.739Z,9.00
2018-12-22T00:15:41.316Z,9.00
2018-12-22T00:18:09.978Z,9.00
2018-12-22T00:20:38.562Z,9.00
2018-12-22T00:23:07.162Z,9.00
2018-12-22T00:25:35.764Z,9.00
2018-12-22T00:28:04.322Z,8.90
2018-12-22T00:30:32.927Z,9.00
2018-12-22T00:33:01.492Z,8.90
2018-12-22T00:35:30.075Z,8.90
2018-12-22T00:37:58.663Z,8.90
2018-12-22T00:40:27.291Z,8.80
2018-12-22T00:42:55.957Z,8.80
2018-12-22T00:45:24.615Z,8.80
2018-12-22T00:47:53.229Z,8.80
2018-12-22T00:50:21.783Z,8.80
2018-12-22T00:52:50.343Z,8.80
2018-12-22T00:55:18.904Z,8.70
2018-12-22T00:57:47.443Z,8.80
2018-12-22T01:00:16.093Z,8.80
2018-12-22T01:02:44.649Z,8.80
2018-12-22T01:05:13.305Z,8.80
2018-12-22T01:07:41.884Z,8.80
2018-12-22T01:10:10.489Z,8.80
2018-12-22T01:12:39.048Z,8.80
2018-12-22T01:15:07.632Z,8.80
2018-12-22T01:17:36.185Z,8.80
2018-12-22T01:20:06.136Z,8.80
2018-12-22T01:22:34.773Z,8.80
2018-12-22T01:25:03.358Z,8.80
2018-12-22T01:27:31.997Z,8.80
2018-12-22T01:30:00.561Z,8.90
2018-12-22T01:32:29.116Z,8.90
2018-12-22T01:34:57.691Z,8.90
2018-12-22T01:37:26.265Z,8.90
2018-12-22T01:39:54.889Z,8.90
2018-12-22T01:42:23.461Z,8.90
2018-12-22T01:44:52.060Z,9.00
2018-12-22T01:47:20.710Z,9.00
2018-12-22T01:49:49.255Z,9.00
2018-12-22T01:52:17.792Z,9.00
2018-12-22T01:54:46.358Z,9.10
2018-12-22T01:57:14.920Z,9.10
2018-12-22T01:59:43.484Z,9.10
2018-12-22T02:02:12.064Z,9.00
2018-12-22T02:04:40.627Z,9.00
2018-12-22T02:07:09.159Z,9.00
2018-12-22T02:09:37.706Z,9.10
2018-12-22T02:12:06.059Z,9.10
2018-12-22T02:14:34.323Z,9.10
2018-12-22T02:17:02.608Z,9.20
2018-12-22T02:19:30.909Z,9.20
2018-12-22T02:21:59.355Z,9.30
2018-12-22T02:24:27.711Z,9.30
2018-12-22T02:26:56.040Z,9.30
2018-12-22T02:29:24.357Z,9.30
2018-12-22T02:31:52.658Z,9.30
2018-12-22T02:34:20.981Z,9.30
2018-12-22T02:36:49.282Z,9.30
2018-12-22T02:39:17.673Z,9.30
2018-12-22T02:41:46.029Z,9.30
2018-12-22T02:44:14.349Z,9.30
2018-12-22T02:46:42.609Z,9.30
2018-12-22T02:49:10.979Z,9.40
2018-12-22T02:51:39.294Z,9.40
2018-12-22T02:54:07.539Z,9.40
2018-12-22T02:56:35.889Z,9.40
2018-12-22T02:59:06.287Z,9.50
2018-12-22T03:01:34.531Z,9.50
2018-12-22T03:04:02.911Z,9.50
2018-12-22T03:06:31.472Z,9.50
2018-12-22T03:08:59.792Z,9.50
2018-12-22T03:11:28.169Z,9.50
2018-12-22T03:13:56.525Z,9.50
2018-12-22T03:16:24.827Z,9.40
2018-12-22T03:18:53.130Z,9.50
2018-12-22T03:21:21.455Z,9.40
2018-12-22T03:23:49.931Z,9.40
2018-12-22T03:26:18.209Z,9.40
2018-12-22T03:28:46.529Z,9.50
2018-12-22T03:31:14.806Z,9.50
2018-12-22T03:33:43.118Z,9.40
2018-12-22T03:36:11.451Z,9.50
2018-12-22T03:38:39.698Z,9.50
2018-12-22T03:41:08.078Z,9.50
2018-12-22T03:43:36.351Z,9.40
2018-12-22T03:46:04.907Z,9.40
2018-12-22T03:48:33.339Z,9.40
2018-12-22T03:51:01.581Z,9.40
2018-12-22T03:53:29.892Z,9.40
2018-12-22T03:55:58.177Z,9.40
2018-12-22T03:58:26.450Z,9.40
2018-12-22T04:00:54.809Z,9.40
2018-12-22T04:03:23.108Z,9.40
2018-12-22T04:05:51.415Z,9.40
2018-12-22T04:08:19.654Z,9.40
2018-12-22T04:10:48.079Z,9.40
2018-12-22T04:13:16.394Z,9.40
2018-12-22T04:15:44.685Z,9.30
2018-12-22T04:18:13.086Z,9.30
2018-12-22T04:20:41.388Z,9.30
2018-12-22T04:23:09.801Z,9.30
2018-12-22T04:25:38.089Z,9.30
2018-12-22T04:28:06.415Z,9.20
2018-12-22T04:30:34.688Z,9.20
2018-12-22T04:33:03.028Z,9.20
2018-12-22T04:35:31.397Z,9.20
2018-12-22T04:37:59.666Z,9.10
2018-12-22T04:40:28.028Z,9.10
2018-12-22T04:42:56.348Z,9.10
2018-12-22T04:45:24.636Z,9.10
2018-12-22T04:47:52.954Z,9.10
2018-12-22T04:50:21.270Z,9.10
2018-12-22T04:52:49.561Z,9.10
2018-12-22T04:55:17.825Z,9.10
2018-12-22T04:57:46.188Z,9.10
2018-12-22T05:00:14.478Z,9.20
2018-12-22T05:02:42.775Z,9.20
2018-12-22T05:05:11.848Z,9.20
2018-12-22T05:07:40.088Z,9.30
2018-12-22T05:10:08.373Z,9.30
2018-12-22T05:12:36.636Z,9.30
2018-12-22T05:15:05.542Z,9.30
2018-12-22T05:17:33.847Z,9.30
2018-12-22T05:20:02.147Z,9.30
2018-12-22T05:22:30.479Z,9.30
2018-12-22T05:24:58.831Z,9.30
2018-12-22T05:27:27.134Z,9.30
2018-12-22T05:29:55.461Z,9.30
2018-12-22T05:32:23.760Z,9.30
2018-12-22T05:34:52.115Z,9.30
2018-12-22T05:37:20.382Z,9.30
2018-12-22T05:39:48.652Z,9.40
2018-12-22T05:42:17.095Z,9.40
2018-12-22T05:44:45.443Z,9.40
2018-12-22T05:47:13.713Z,9.30
2018-12-22T05:49:42.042Z,9.30
2018-12-22T05:52:10.358Z,9.30
2018-12-22T05:54:38.666Z,9.30
2018-12-22T05:57:06.935Z,9.20
2018-12-22T05:59:35.271Z,9.20
2018-12-22T06:02:03.688Z,9.20
2018-12-22T06:04:32.003Z,9.20
2018-12-22T06:07:06.704Z,9.20
2018-12-22T06:09:35.024Z,9.30
2018-12-22T06:12:03.437Z,9.20
2018-12-22T06:14:31.739Z,9.20
2018-12-22T06:17:00.056Z,9.30
2018-12-22T06:19:28.381Z,9.30
2018-12-22T06:21:56.739Z,9.40
2018-12-22T06:24:25.935Z,9.40
2018-12-22T06:26:54.297Z,9.50
2018-12-22T06:29:22.651Z,9.60
2018-12-22T06:31:50.979Z,9.70
2018-12-22T06:34:19.360Z,9.70
2018-12-22T06:36:47.679Z,9.70
2018-12-22T06:39:16.240Z,9.70
2018-12-22T06:41:44.586Z,9.70
2018-12-22T06:44:12.867Z,9.80
2018-12-22T06:46:41.175Z,9.80
2018-12-22T06:49:09.482Z,9.80
2018-12-22T06:51:38.507Z,9.80
2018-12-22T06:54:06.817Z,9.80
2018-12-22T06:56:35.262Z,9.80
2018-12-22T06:59:03.646Z,9.70
2018-12-22T07:01:32.123Z,9.70
2018-12-22T07:04:00.570Z,9.70
2018-12-22T07:06:28.837Z,9.70
2018-12-22T07:08:57.168Z,9.70
2018-12-22T07:11:26.302Z,9.70
2018-12-22T07:13:54.804Z,9.80
2018-12-22T07:16:24.572Z,9.70
2018-12-22T07:18:53.208Z,9.70
2018-12-22T07:21:21.451Z,9.60
2018-12-22T07:23:49.706Z,9.60
2018-12-22T07:26:18.005Z,9.60
2018-12-22T07:28:46.301Z,9.60
2018-12-22T07:31:14.904Z,9.50
2018-12-22T07:33:43.521Z,9.50
2018-12-22T07:36:11.884Z,9.50
2018-12-22T07:38:40.175Z,9.40
2018-12-22T07:41:08.497Z,9.30
2018-12-22T07:43:36.842Z,9.30
2018-12-22T07:46:05.330Z,9.30
2018-12-22T07:48:33.609Z,9.30
2018-12-22T07:51:01.948Z,9.30
2018-12-22T07:53:30.503Z,9.20
2018-12-22T07:55:58.823Z,9.10
2018-12-22T07:58:27.110Z,9.10
2018-12-22T08:00:55.473Z,9.10
2018-12-22T08:03:23.798Z,9.10
2018-12-22T08:05:52.069Z,9.10
2018-12-22T08:08:20.331Z,9.10
2018-12-22T08:10:48.610Z,9.10
2018-12-22T08:13:16.894Z,9.10
2018-12-22T08:15:45.197Z,9.00
2018-12-22T08:18:13.484Z,9.00
2018-12-22T08:20:41.798Z,9.00
2018-12-22T08:23:10.062Z,9.00
2018-12-22T08:25:38.348Z,9.00
2018-12-22T08:28:06.603Z,9.00
2018-12-22T08:30:43.348Z,9.00
2018-12-22T08:33:05.194Z,9.00
2018-12-22T08:35:33.522Z,9.00
2018-12-22T08:38:01.812Z,8.90
2018-12-22T08:40:30.140Z,8.90
2018-12-22T08:42:58.412Z,8.90
2018-12-22T08:45:26.703Z,8.90
2018-12-22T08:47:55.015Z,8.90
2018-12-22T08:50:23.297Z,8.90
2018-12-22T08:52:51.583Z,8.90
2018-12-22T08:55:19.860Z,8.90
2018-12-22T08:57:48.103Z,8.90
2018-12-22T09:00:16.658Z,8.90
2018-12-22T09:02:45.016Z,8.90
2018-12-22T09:05:13.312Z,8.90
2018-12-22T09:07:41.630Z,8.80
2018-12-22T09:10:10.055Z,8.80
2018-12-22T09:12:38.386Z,8.80
2018-12-22T09:15:07.832Z,8.90
2018-12-22T09:17:36.109Z,8.90
2018-12-22T09:20:05.700Z,8.90
2018-12-22T09:22:34.053Z,8.80
2018-12-22T09:25:02.347Z,8.80
2018-12-22T09:27:30.738Z,8.70
2018-12-22T09:29:59.018Z,8.50
2018-12-22T09:32:27.337Z,8.50
2018-12-22T09:34:55.619Z,8.50
2018-12-22T09:37:23.950Z,8.50
2018-12-22T09:39:52.286Z,8.40
2018-12-22T09:42:20.542Z,8.40
2018-12-22T09:44:48.835Z,8.40
2018-12-22T09:47:17.146Z,8.40
2018-12-22T09:49:45.459Z,8.30
2018-12-22T09:52:13.843Z,8.30
2018-12-22T09:54:42.133Z,8.40
2018-12-22T09:57:10.517Z,8.30
2018-12-22T09:59:39.138Z,8.30
2018-12-22T10:02:07.456Z,8.30
2018-12-22T10:04:35.765Z,8.30
2018-12-22T10:07:04.043Z,8.40
2018-12-22T10:09:32.311Z,8.40
2018-12-22T10:12:00.669Z,8.40
2018-12-22T10:14:29.030Z,8.50
2018-12-22T10:16:57.441Z,8.50
2018-12-22T10:19:25.747Z,8.60
2018-12-22T10:21:54.015Z,8.60
2018-12-22T10:24:22.326Z,8.70
2018-12-22T10:26:50.672Z,8.70
2018-12-22T10:29:18.931Z,8.80
2018-12-22T10:31:47.307Z,8.90
2018-12-22T10:34:15.642Z,8.90
2018-12-22T10:36:44.271Z,9.00
2018-12-22T10:39:12.804Z,9.00
2018-12-22T10:41:41.250Z,9.10
2018-12-22T10:44:09.575Z,9.20
2018-12-22T10:46:37.867Z,9.20
2018-12-22T10:49:06.202Z,9.20
2018-12-22T10:51:34.666Z,9.20
2018-12-22T10:54:02.923Z,9.30
2018-12-22T10:56:31.280Z,9.30
2018-12-22T10:58:59.683Z,9.30
2018-12-22T11:01:28.066Z,9.30
2018-12-22T11:03:56.306Z,9.30
2018-12-22T11:06:24.682Z,9.30
2018-12-22T11:08:52.916Z,9.40
2018-12-22T11:11:21.375Z,9.40
2018-12-22T11:13:49.889Z,9.50
2018-12-22T11:16:18.293Z,9.50
2018-12-22T11:18:46.593Z,9.60
2018-12-22T11:21:15.087Z,9.50
2018-12-22T11:23:43.354Z,9.50
2018-12-22T11:26:11.720Z,9.50
2018-12-22T11:28:40.021Z,9.50
2018-12-22T11:31:08.497Z,9.50
2018-12-22T11:33:36.823Z,9.50
2018-12-22T11:36:05.091Z,9.60
2018-12-22T11:38:33.335Z,9.60
2018-12-22T11:41:01.708Z,9.70
2018-12-22T11:43:29.983Z,9.80
2018-12-22T11:45:58.359Z,9.90
2018-12-22T11:49:35.950Z,9.80
2018-12-22T11:52:04.521Z,10.00
2018-12-22T11:54:32.785Z,10.00
2018-12-22T11:57:01.217Z,10.00
2018-12-22T11:59:29.478Z,10.00
2018-12-22T12:01:57.992Z,10.00
2018-12-22T12:04:26.265Z,10.00
2018-12-22T12:06:54.578Z,10.10
2018-12-22T12:09:22.899Z,10.10
2018-12-22T12:11:51.209Z,10.00
2018-12-22T12:14:19.564Z,10.00
2018-12-22T12:17:04.138Z,10.00
2018-12-22T12:19:33.989Z,10.00
2018-12-22T12:22:02.389Z,10.00
2018-12-22T12:24:30.719Z,10.00
2018-12-22T12:26:59.162Z,10.00
2018-12-22T12:29:27.497Z,10.00
2018-12-22T12:31:55.801Z,9.90
2018-12-22T12:34:24.034Z,9.90
2018-12-22T12:36:52.292Z,10.00
2018-12-22T12:39:20.578Z,9.90
2018-12-22T12:41:48.853Z,9.90
2018-12-22T12:44:17.329Z,9.80
2018-12-22T12:46:50.471Z,9.70
2018-12-22T12:49:19.656Z,9.70
2018-12-22T12:51:48.078Z,9.60
2018-12-22T12:54:16.529Z,9.60
2018-12-22T12:56:49.207Z,9.60
2018-12-22T12:59:17.478Z,9.70
2018-12-22T13:01:46.020Z,9.80
2018-12-22T13:04:14.317Z,9.90
2018-12-22T13:06:42.613Z,9.90
2018-12-22T13:09:10.887Z,9.90
2018-12-22T13:11:39.210Z,9.90
2018-12-22T13:14:17.166Z,9.90
2018-12-22T13:16:45.540Z,9.90
2018-12-22T13:19:13.952Z,10.00
2018-12-22T13:21:45.340Z,10.00
2018-12-22T13:24:13.730Z,10.10
2018-12-22T13:26:42.156Z,10.10
2018-12-22T13:29:10.548Z,10.10
2018-12-22T13:31:39.866Z,10.20
2018-12-22T13:34:08.125Z,10.20
2018-12-22T13:36:36.420Z,10.10
2018-12-22T13:39:12.035Z,10.10
2018-12-22T13:41:40.330Z,10.10
2018-12-22T13:44:08.643Z,10.10
2018-12-22T13:46:36.973Z,10.10
2018-12-22T13:49:05.560Z,10.00
2018-12-22T13:51:33.993Z,10.00
2018-12-22T13:54:02.327Z,10.00
2018-12-22T13:56:30.602Z,10.10
2018-12-22T13:58:58.875Z,10.00
2018-12-22T14:01:27.949Z,10.00
2018-12-22T14:03:56.237Z,10.00
2018-12-22T14:06:31.895Z,10.00
2018-12-22T14:09:00.150Z,10.00
2018-12-22T14:11:30.385Z,9.80
2018-12-22T14:13:59.323Z,9.70
2018-12-22T14:16:35.923Z,9.60
2018-12-22T14:19:07.603Z,9.60
2018-12-22T14:21:35.950Z,9.60
2018-12-22T14:24:14.292Z,9.50
2018-12-22T14:26:42.687Z,9.40
2018-12-22T14:29:10.966Z,9.40
2018-12-22T14:31:39.243Z,9.40
2018-12-22T14:34:12.523Z,9.40
2018-12-22T14:36:40.820Z,9.40
2018-12-22T14:39:09.627Z,9.40
2018-12-22T14:41:37.935Z,9.40
2018-12-22T14:44:06.226Z,9.40
2018-12-22T14:46:34.971Z,9.50
2018-12-22T14:49:03.222Z,9.50
2018-12-22T14:51:31.510Z,9.50
2018-12-22T14:53:59.792Z,9.50
2018-12-22T14:56:35.373Z,9.50
2018-12-22T14:59:03.939Z,9.50
2018-12-22T15:01:32.244Z,9.40
2018-12-22T15:04:00.541Z,9.40
2018-12-22T15:06:28.818Z,9.40
2018-12-22T15:08:57.162Z,9.30
2018-12-22T15:11:25.480Z,9.30
2018-12-22T15:13:55.275Z,9.30
2018-12-22T15:16:25.071Z,9.20
2018-12-22T15:19:02.782Z,9.20
2018-12-22T15:21:31.832Z,9.20
2018-12-22T15:24:01.395Z,9.20
2018-12-22T15:26:30.799Z,9.20
2018-12-22T15:28:59.812Z,9.10
2018-12-22T15:31:29.265Z,9.10
2018-12-22T15:34:00.078Z,9.00
2018-12-22T15:36:29.599Z,8.90
2018-12-22T15:39:00.528Z,8.90
2018-12-22T15:41:30.660Z,8.70
2018-12-22T15:44:01.047Z,8.70
2018-12-22T15:46:31.143Z,8.60
2018-12-22T15:49:00.147Z,8.60
2018-12-22T15:51:30.122Z,8.70
2018-12-22T15:53:59.815Z,8.70
2018-12-22T15:56:29.796Z,8.70
2018-12-22T15:59:00.711Z,8.70
2018-12-22T16:01:31.213Z,8.70
2018-12-22T16:04:01.597Z,8.80
2018-12-22T16:06:33.317Z,8.70
2018-12-22T16:09:01.593Z,8.70
2018-12-22T16:11:30.203Z,8.70
2018-12-22T16:13:58.592Z,8.70
2018-12-22T16:16:26.917Z,8.70
2018-12-22T16:18:55.244Z,8.60
2018-12-22T16:21:23.635Z,8.60
2018-12-22T16:23:52.050Z,8.60
2018-12-22T16:26:20.331Z,8.60
2018-12-22T16:28:54.500Z,8.60
2018-12-22T16:31:22.809Z,8.70
2018-12-22T16:33:51.167Z,8.70
2018-12-22T16:36:19.505Z,8.70
2018-12-22T16:38:47.901Z,8.80
2018-12-22T16:41:16.564Z,8.80
2018-12-22T16:43:44.944Z,8.80
2018-12-22T16:46:13.194Z,8.90
2018-12-22T16:48:44.289Z,8.90
2018-12-22T16:51:12.609Z,8.90
2018-12-22T16:53:41.017Z,8.90
2018-12-22T16:56:09.448Z,8.90
2018-12-22T16:58:39.828Z,8.80
2018-12-22T17:01:16.729Z,8.80
2018-12-22T17:03:45.867Z,8.80
2018-12-22T17:06:15.261Z,8.80
2018-12-22T17:08:43.594Z,8.80
2018-12-22T17:11:12.242Z,8.80
2018-12-22T17:13:41.052Z,8.80
2018-12-22T17:16:09.434Z,8.80
2018-12-22T17:18:37.702Z,8.80
2018-12-22T17:22:11.346Z,8.70
2018-12-22T17:24:49.316Z,8.70
2018-12-22T17:27:18.217Z,8.60
2018-12-22T17:29:46.600Z,8.60
2018-12-22T17:32:16.117Z,8.50
2018-12-22T17:34:44.664Z,8.50
2018-12-22T17:37:14.186Z,8.40
2018-12-22T17:39:42.622Z,8.50
2018-12-22T17:42:10.929Z,8.40
2018-12-22T17:44:39.270Z,8.50
2018-12-22T17:47:08.281Z,8.50
2018-12-22T17:49:36.848Z,8.50
2018-12-22T17:52:05.168Z,8.50
2018-12-22T17:54:33.678Z,8.50
2018-12-22T17:57:02.019Z,8.40
2018-12-22T17:59:30.497Z,8.40
2018-12-22T18:01:58.915Z,8.50
2018-12-22T18:04:28.212Z,8.40
2018-12-22T18:06:56.823Z,8.40
2018-12-22T18:09:25.257Z,8.40
2018-12-22T18:11:53.540Z,8.40
2018-12-22T18:14:21.923Z,8.40
2018-12-22T18:16:50.354Z,8.40
2018-12-22T18:19:18.854Z,8.30
2018-12-22T18:21:47.345Z,8.30
2018-12-22T18:24:15.760Z,8.30
2018-12-22T18:26:44.205Z,8.30
2018-12-22T18:29:12.526Z,8.30
2018-12-22T18:31:40.935Z,8.30
2018-12-22T18:34:09.467Z,8.30
2018-12-22T18:36:38.347Z,8.30
2018-12-22T18:39:07.311Z,8.30
2018-12-22T18:41:35.867Z,8.40
2018-12-22T18:44:04.632Z,8.40
2018-12-22T18:46:32.910Z,8.40
2018-12-22T18:49:01.328Z,8.40
2018-12-22T18:51:29.722Z,8.40
2018-12-22T18:53:58.020Z,8.40
2018-12-22T18:56:26.426Z,8.40
2018-12-22T18:58:55.359Z,8.40
2018-12-22T19:01:23.782Z,8.40
2018-12-22T19:03:52.155Z,8.40
2018-12-22T19:06:20.742Z,8.40
2018-12-22T19:08:50.648Z,8.50
2018-12-22T19:11:22.044Z,8.40
2018-12-22T19:13:50.449Z,8.40
2018-12-22T19:16:19.855Z,8.40
2018-12-22T19:18:48.195Z,8.30
2018-12-22T19:21:17.060Z,8.30
2018-12-22T19:23:45.385Z,8.20
2018-12-22T19:26:13.776Z,8.20
2018-12-22T19:28:42.093Z,8.20
2018-12-22T19:31:10.457Z,8.20
2018-12-22T19:33:38.750Z,8.20
2018-12-22T19:36:07.129Z,8.10
2018-12-22T19:38:35.471Z,8.00
2018-12-22T19:41:04.819Z,8.00
2018-12-22T19:43:33.129Z,8.00
2018-12-22T19:46:01.473Z,7.90
2018-12-22T19:48:29.882Z,7.90
2018-12-22T19:50:58.323Z,8.00
2018-12-22T19:53:26.675Z,8.00
2018-12-22T19:55:55.197Z,8.00
2018-12-22T19:58:24.144Z,8.00
2018-12-22T20:00:52.597Z,8.00
2018-12-22T20:03:21.186Z,8.10
2018-12-22T20:05:51.396Z,8.00
2018-12-22T20:08:20.252Z,7.90
2018-12-22T20:10:49.146Z,7.90
2018-12-22T20:19:15.754Z,8.00
2018-12-22T20:21:49.147Z,8.00
2018-12-22T20:24:27.299Z,8.00
2018-12-22T20:27:05.144Z,8.00
2018-12-22T20:29:45.386Z,8.10
2018-12-22T20:35:25.863Z,8.10
2018-12-22T20:38:06.986Z,8.10
2018-12-22T20:43:36.061Z,8.20
2018-12-22T20:46:04.301Z,8.20
2018-12-22T20:48:32.564Z,8.20
2018-12-22T20:51:02.470Z,8.20
2018-12-22T20:53:30.742Z,8.30
2018-12-22T20:55:59.070Z,8.30
2018-12-22T20:58:27.343Z,8.30
2018-12-22T21:00:55.882Z,8.30
2018-12-22T21:03:31.653Z,8.30
2018-12-22T21:06:00.455Z,8.30
2018-12-22T21:08:31.000Z,8.30
2018-12-22T21:10:59.283Z,8.40
2018-12-22T21:13:27.809Z,8.40
2018-12-22T21:15:56.395Z,8.40
2018-12-22T21:18:25.458Z,8.50
2018-12-22T21:20:53.704Z,8.50
2018-12-22T21:23:21.963Z,8.50
2018-12-22T21:25:51.361Z,8.50
2018-12-22T21:28:19.611Z,8.50
2018-12-22T21:30:47.918Z,8.50
2018-12-22T21:33:16.221Z,8.60
2018-12-22T21:35:52.949Z,8.60
2018-12-22T21:38:15.378Z,8.60
2018-12-22T21:40:43.707Z,8.60
2018-12-22T21:43:11.984Z,8.60
2018-12-22T21:45:40.311Z,8.60
2018-12-22T21:48:09.464Z,8.60
2018-12-22T21:50:38.319Z,8.60
2018-12-22T21:53:06.705Z,8.60
2018-12-22T21:55:37.305Z,8.60
2018-12-22T21:58:05.589Z,8.60
2018-12-22T22:00:35.938Z,8.60
2018-12-22T22:03:04.815Z,8.60
2018-12-22T22:05:33.082Z,8.50
2018-12-22T22:08:01.452Z,8.50
2018-12-22T22:10:29.896Z,8.50
2018-12-22T22:12:58.144Z,8.50
2018-12-22T22:15:26.442Z,8.50
2018-12-22T22:17:54.671Z,8.50
2018-12-22T22:20:25.417Z,8.40
2018-12-22T22:22:55.294Z,8.40
2018-12-22T22:25:24.076Z,8.40
2018-12-22T22:27:53.157Z,8.40
2018-12-22T22:30:21.482Z,8.40
2018-12-22T22:32:51.145Z,8.50
2018-12-22T22:35:21.151Z,8.40
2018-12-22T22:37:49.681Z,8.40
2018-12-22T22:40:19.115Z,8.40
2018-12-22T22:42:47.520Z,8.40
2018-12-22T22:45:15.896Z,8.40
2018-12-22T22:47:44.834Z,8.30
2018-12-22T22:50:13.121Z,8.30
2018-12-22T22:52:42.718Z,8.40
2018-12-22T22:55:10.998Z,8.30
2018-12-22T22:57:39.313Z,8.30
2018-12-22T23:00:13.668Z,8.30
2018-12-22T23:02:41.941Z,8.30
2018-12-22T23:05:10.202Z,8.30
2018-12-22T23:07:38.883Z,8.30
2018-12-22T23:10:07.734Z,8.30
2018-12-22T23:12:36.053Z,8.30
2018-12-22T23:15:04.493Z,8.30
2018-12-22T23:17:32.814Z,8.30
2018-12-22T23:20:01.078Z,8.30
2018-12-22T23:22:29.353Z,8.30
2018-12-22T23:24:57.653Z,8.30
2018-12-22T23:27:25.955Z,8.30
2018-12-22T23:29:54.201Z,8.30
2018-12-22T23:32:22.481Z,8.30
2018-12-22T23:34:51.607Z,8.30
2018-12-22T23:37:19.898Z,8.30
2018-12-22T23:39:49.194Z,8.40
2018-12-22T23:42:17.600Z,8.30
2018-12-22T23:44:45.984Z,8.30
2018-12-22T23:47:15.263Z,8.20
2018-12-22T23:49:43.487Z,8.30
2018-12-22T23:52:11.905Z,8.20
2018-12-22T23:54:40.219Z,8.20
2018-12-22T23:57:08.416Z,8.20
2018-12-22T23:59:36.658Z,8.20
